createdAt,value
2023-03-11T17:32:08.181Z,71.34
2023-03-11T17:33:08.166Z,70.93
2023-03-11T17:34:08.104Z,72.73
2023-03-11T17:35:08.094Z,72.94
2023-03-11T17:36:08.091Z,73.66
2023-03-11T17:37:08.060Z,74.01
2023-03-11T17:38:08.058Z,74.11
2023-03-11T17:39:08.056Z,74.46
2023-03-11T17:40:08.073Z,74.35
2023-03-11T17:41:08.077Z,74.46
2023-03-11T17:42:08.117Z,74.80
2023-03-11T17:43:08.035Z,75.64
2023-03-11T17:44:08.039Z,76.57
2023-03-11T17:45:08.012Z,77.09
2023-03-11T17:46:07.957Z,77.34
2023-03-11T17:47:08.029Z,77.96
2023-03-11T17:48:07.944Z,77.89
2023-03-11T17:49:07.909Z,77.79
2023-03-11T17:50:07.950Z,77.72
2023-03-11T17:51:07.894Z,78.24
2023-03-11T17:52:07.860Z,78.45
2023-03-11T17:53:07.873Z,79.49
2023-03-11T17:54:07.867Z,79.94
2023-03-11T17:55:07.866Z,79.63
2023-03-11T17:56:07.819Z,79.32
2023-03-11T17:57:07.809Z,79.25
2023-03-11T17:58:07.784Z,79.05
2023-03-11T17:59:07.802Z,79.36
2023-03-11T18:00:07.759Z,80.19
2023-03-11T18:01:07.749Z,81.27
2023-03-11T18:02:07.798Z,82.10
2023-03-11T18:03:07.727Z,82.73
2023-03-11T18:04:07.736Z,82.84
2023-03-11T18:05:07.752Z,82.94
2023-03-11T18:06:07.695Z,83.88
2023-03-11T18:07:07.767Z,84.02
2023-03-11T18:08:07.677Z,83.92
2023-03-11T18:09:07.763Z,83.81
2023-03-11T18:10:07.630Z,84.23
2023-03-11T18:11:07.777Z,85.00
2023-03-11T18:12:07.700Z,85.11
2023-03-11T18:13:07.713Z,85.00
2023-03-11T18:14:07.624Z,85.11
2023-03-11T18:15:08.330Z,85.00
2023-03-11T18:16:07.634Z,85.14
2023-03-11T18:17:07.625Z,85.46
2023-03-11T18:18:07.541Z,85.56
2023-03-11T18:19:07.511Z,85.46
2023-03-11T18:20:07.589Z,85.60
2023-03-11T18:21:07.575Z,85.81
2023-03-11T18:22:07.470Z,85.91
2023-03-11T18:23:07.476Z,86.13
2023-03-11T18:24:07.486Z,86.75
2023-03-11T18:25:07.419Z,87.27
2023-03-11T18:26:07.422Z,87.38
2023-03-11T18:27:08.633Z,87.31
2023-03-11T18:28:07.472Z,87.42
2023-03-11T18:29:07.574Z,86.79
2023-03-11T18:30:07.432Z,86.37
2023-03-11T18:31:07.408Z,86.16
2023-03-11T18:32:07.391Z,86.06
2023-03-11T18:33:07.355Z,86.58
2023-03-11T18:34:07.353Z,87.10
2023-03-11T18:35:07.338Z,87.42
2023-03-11T18:36:07.390Z,87.73
2023-03-11T18:37:07.271Z,87.98
2023-03-11T18:38:07.248Z,88.78
2023-03-11T18:39:07.279Z,89.61
2023-03-11T18:40:07.228Z,89.93
2023-03-11T18:41:07.217Z,89.97
2023-03-11T18:42:07.204Z,90.18
2023-03-11T18:43:07.177Z,90.18
2023-03-11T18:44:07.193Z,90.18
2023-03-11T18:45:07.174Z,90.39
2023-03-11T18:46:07.207Z,90.28
2023-03-11T18:47:07.132Z,90.11
2023-03-11T18:48:07.120Z,90.01
2023-03-11T18:49:07.158Z,90.01
2023-03-11T18:50:07.080Z,89.90
2023-03-11T18:51:07.122Z,90.05
2023-03-11T18:52:07.066Z,90.26
2023-03-11T18:53:07.077Z,90.58
2023-03-11T18:54:07.056Z,90.89
2023-03-11T18:55:07.033Z,91.20
2023-03-11T18:56:07.042Z,91.47
2023-03-11T18:57:07.023Z,91.52
2023-03-11T18:58:07.051Z,91.72
2023-03-11T18:59:06.996Z,91.94
2023-03-11T19:00:06.941Z,92.35
2023-03-11T19:01:06.970Z,92.77
2023-03-11T19:02:06.938Z,92.77
2023-03-11T19:03:06.974Z,92.57
2023-03-11T19:04:06.932Z,92.57
2023-03-11T19:05:06.911Z,92.46
2023-03-11T19:06:06.888Z,92.57
2023-03-11T19:07:06.871Z,92.35
2023-03-11T19:08:06.857Z,92.25
2023-03-11T19:09:06.863Z,92.46
2023-03-11T19:10:06.845Z,92.67
2023-03-11T19:11:06.836Z,92.67
2023-03-11T19:12:06.814Z,93.19
2023-03-11T19:13:06.826Z,93.61
2023-03-11T19:14:06.793Z,93.71
2023-03-11T19:15:06.775Z,94.03
2023-03-11T19:16:06.787Z,94.56
2023-03-11T19:17:06.771Z,94.97
2023-03-11T19:18:07.566Z,95.98
2023-03-11T19:19:06.769Z,96.23
2023-03-11T19:20:06.744Z,96.02
2023-03-11T19:21:06.698Z,95.70
2023-03-11T19:22:06.701Z,95.60
2023-03-11T19:23:06.702Z,95.60
2023-03-11T19:24:06.681Z,95.70
2023-03-11T19:25:06.845Z,96.02
2023-03-11T19:26:06.633Z,96.44
2023-03-11T19:27:06.690Z,96.33
2023-03-11T19:28:06.645Z,96.44
2023-03-11T19:29:06.698Z,96.55
2023-03-11T19:30:06.575Z,96.75
2023-03-11T19:31:06.636Z,96.96
2023-03-11T19:32:06.602Z,97.17
2023-03-11T19:33:06.545Z,97.28
2023-03-11T19:34:06.550Z,97.28
2023-03-11T19:35:06.565Z,97.28
2023-03-11T19:36:06.552Z,97.28
2023-03-11T19:37:06.534Z,97.17
2023-03-11T19:38:06.473Z,96.96
2023-03-11T19:39:06.511Z,96.90
2023-03-11T19:40:06.466Z,96.90
2023-03-11T19:41:06.499Z,97.00
2023-03-11T19:42:06.460Z,97.00
2023-03-11T19:43:06.447Z,97.00
2023-03-11T19:44:06.450Z,97.00
2023-03-11T19:45:06.409Z,97.00
2023-03-11T19:46:06.420Z,97.11
2023-03-11T19:47:06.428Z,97.22
2023-03-11T19:48:06.395Z,97.22
2023-03-11T19:49:06.362Z,97.22
2023-03-11T19:50:06.358Z,97.32
2023-03-11T19:51:06.339Z,97.42
2023-03-11T19:52:06.340Z,97.63
2023-03-11T19:53:06.342Z,98.05
2023-03-11T19:54:06.295Z,98.32
2023-03-11T19:55:06.306Z,98.32
2023-03-11T19:56:06.261Z,98.54
2023-03-11T19:57:06.259Z,98.64
2023-03-11T19:58:06.253Z,98.64
2023-03-11T19:59:06.245Z,98.64
2023-03-11T20:00:09.385Z,98.54
2023-03-11T20:01:06.245Z,98.49
2023-03-11T20:02:06.257Z,98.80
2023-03-11T20:03:06.205Z,99.01
2023-03-11T20:04:06.241Z,98.97
2023-03-11T20:05:06.281Z,98.97
2023-03-11T20:06:06.213Z,98.97
2023-03-11T20:07:06.130Z,98.86
2023-03-11T20:08:06.219Z,98.75
2023-03-11T20:09:06.143Z,98.75
2023-03-11T20:10:06.098Z,98.92
2023-03-11T20:11:06.081Z,98.92
2023-03-11T20:12:06.131Z,98.92
2023-03-11T20:13:06.048Z,98.92
2023-03-11T20:14:06.053Z,98.92
2023-03-11T20:15:06.004Z,99.02
2023-03-11T20:16:06.088Z,99.13
2023-03-11T20:17:06.073Z,99.13
2023-03-11T20:18:06.039Z,99.08
2023-03-11T20:19:06.049Z,98.98
2023-03-11T20:20:06.095Z,98.77
2023-03-11T20:21:05.953Z,98.67
2023-03-11T20:22:05.969Z,98.46
2023-03-11T20:23:06.217Z,98.35
2023-03-11T20:24:05.920Z,97.94
2023-03-11T20:25:05.897Z,97.41
2023-03-11T20:26:05.865Z,96.95
2023-03-11T20:27:05.975Z,96.53
2023-03-11T20:28:05.840Z,96.11
2023-03-11T20:29:05.988Z,95.59
2023-03-11T20:30:05.840Z,95.28
2023-03-11T20:31:05.946Z,95.07
2023-03-11T20:32:05.845Z,94.76
2023-03-11T20:33:05.952Z,94.23
2023-03-11T20:34:05.875Z,93.92
2023-03-11T20:35:05.867Z,93.71
2023-03-11T20:36:05.901Z,93.35
2023-03-11T20:37:05.775Z,92.94
2023-03-11T20:38:05.796Z,92.52
2023-03-11T20:39:07.887Z,91.79
2023-03-11T20:40:05.870Z,91.22
2023-03-11T20:41:05.855Z,90.81
2023-03-11T20:42:05.796Z,90.18
2023-03-11T20:43:05.673Z,89.87
2023-03-11T20:44:05.712Z,89.62
2023-03-11T20:45:05.673Z,89.20
2023-03-11T20:46:05.719Z,88.99
2023-03-11T20:47:05.693Z,88.78
2023-03-11T20:48:05.635Z,88.68
2023-03-11T20:49:05.660Z,88.57
2023-03-11T20:50:05.653Z,88.78
2023-03-11T20:51:05.686Z,88.99
2023-03-11T20:52:05.558Z,88.68
2023-03-11T20:53:05.668Z,88.68
2023-03-11T20:54:05.563Z,88.68
2023-03-11T20:55:05.574Z,88.68
2023-03-11T20:56:05.604Z,88.99
2023-03-11T20:57:05.485Z,88.89
2023-03-11T20:58:05.572Z,88.99
2023-03-11T20:59:07.540Z,88.89
2023-03-11T21:00:05.469Z,88.68
2023-03-11T21:01:05.461Z,88.26
2023-03-11T21:02:05.489Z,88.06
2023-03-11T21:03:05.568Z,87.81
2023-03-11T21:04:05.646Z,87.18
2023-03-11T21:05:05.393Z,87.22
2023-03-11T21:06:05.416Z,87.01
2023-03-11T21:07:05.488Z,86.91
2023-03-11T21:08:05.462Z,87.01
2023-03-11T21:09:05.336Z,87.12
2023-03-11T21:10:05.387Z,87.05
2023-03-11T21:11:05.419Z,87.26
2023-03-11T21:12:05.385Z,87.47
2023-03-11T21:13:05.344Z,87.51
2023-03-11T21:14:05.305Z,87.82
2023-03-11T21:15:05.374Z,88.13
2023-03-11T21:16:05.274Z,88.76
2023-03-11T21:17:05.401Z,89.01
2023-03-11T21:18:05.415Z,89.32
2023-03-11T21:19:05.417Z,90.06
2023-03-11T21:20:05.277Z,90.58
2023-03-11T21:21:05.256Z,91.10
2023-03-11T21:22:05.292Z,92.04
2023-03-11T21:23:05.173Z,92.08
2023-03-11T21:24:05.134Z,92.19
2023-03-11T21:25:08.341Z,92.29
2023-03-11T21:26:05.094Z,92.19
2023-03-11T21:27:05.275Z,92.19
2023-03-11T21:28:05.102Z,92.02
2023-03-11T21:29:05.144Z,92.02
2023-03-11T21:30:05.061Z,92.02
2023-03-11T21:31:05.341Z,91.91
2023-03-11T21:32:05.092Z,91.91
2023-03-11T21:33:05.213Z,92.02
2023-03-11T21:34:05.047Z,92.02
2023-03-11T21:35:05.143Z,91.98
2023-03-11T21:36:05.082Z,91.98
2023-03-11T21:37:05.100Z,91.77
2023-03-11T21:38:05.019Z,91.46
2023-03-11T21:39:05.030Z,91.25
2023-03-11T21:40:04.959Z,91.14
2023-03-11T21:41:04.916Z,91.03
2023-03-11T21:42:05.044Z,90.83
2023-03-11T21:43:04.911Z,90.72
2023-03-11T21:44:04.874Z,90.62
2023-03-11T21:45:04.887Z,90.62
2023-03-11T21:46:04.908Z,90.31
2023-03-11T21:47:04.975Z,90.09
2023-03-11T21:48:04.882Z,89.89
2023-03-11T21:49:04.886Z,89.58
2023-03-11T21:50:04.804Z,89.15
2023-03-11T21:51:04.849Z,89.05
2023-03-11T21:52:04.770Z,89.36
2023-03-11T21:53:04.745Z,89.58
2023-03-11T21:54:04.772Z,89.61
2023-03-11T21:55:04.727Z,89.93
2023-03-11T21:56:04.745Z,90.14
2023-03-11T21:57:04.774Z,90.41
2023-03-11T21:58:04.756Z,90.45
2023-03-11T21:59:04.850Z,90.45
2023-03-11T22:00:04.730Z,90.34
2023-03-11T22:01:04.863Z,90.45
2023-03-11T22:02:04.872Z,90.56
2023-03-11T22:03:04.757Z,90.66
2023-03-11T22:04:04.773Z,90.66
2023-03-11T22:05:04.722Z,90.45
2023-03-11T22:06:04.601Z,90.45
2023-03-11T22:07:04.654Z,91.08
2023-03-11T22:08:04.610Z,91.64
2023-03-11T22:09:04.627Z,92.16
2023-03-11T22:10:04.573Z,92.38
2023-03-11T22:11:04.553Z,92.38
2023-03-11T22:12:04.516Z,92.48
2023-03-11T22:13:04.612Z,92.69
2023-03-11T22:14:04.570Z,93.26
2023-03-11T22:15:04.483Z,93.36
2023-03-11T22:16:05.192Z,93.57
2023-03-11T22:17:04.571Z,93.67
2023-03-11T22:18:04.634Z,93.78
2023-03-11T22:19:04.552Z,94.09
2023-03-11T22:20:04.464Z,94.51
2023-03-11T22:21:04.490Z,94.62
2023-03-11T22:22:04.403Z,94.93
2023-03-11T22:23:04.369Z,95.14
2023-03-11T22:24:04.356Z,95.31
2023-03-11T22:25:04.328Z,95.76
2023-03-11T22:26:04.319Z,95.93
2023-03-11T22:27:04.340Z,96.04
2023-03-11T22:28:04.278Z,96.04
2023-03-11T22:29:04.789Z,96.04
2023-03-11T22:30:04.288Z,96.04
2023-03-11T22:31:04.260Z,96.25
2023-03-11T22:32:04.301Z,96.25
2023-03-11T22:33:04.238Z,96.35
2023-03-11T22:34:04.237Z,96.45
2023-03-11T22:35:04.197Z,96.66
2023-03-11T22:36:04.258Z,96.66
2023-03-11T22:37:04.189Z,96.83
2023-03-11T22:38:04.167Z,96.72
2023-03-11T22:39:04.255Z,96.72
2023-03-11T22:40:04.186Z,96.66
2023-03-11T22:41:04.116Z,96.51
2023-03-11T22:42:04.153Z,96.51
2023-03-11T22:43:04.095Z,96.41
2023-03-11T22:44:04.088Z,96.41
2023-03-11T22:45:04.084Z,96.31
2023-03-11T22:46:04.290Z,96.20
2023-03-11T22:47:04.052Z,95.99
2023-03-11T22:48:04.053Z,95.84
2023-03-11T22:49:04.120Z,95.53
2023-03-11T22:50:04.041Z,95.32
2023-03-11T22:51:04.005Z,95.01
2023-03-11T22:52:04.020Z,94.90
2023-03-11T22:53:04.007Z,94.34
2023-03-11T22:54:03.977Z,93.71
2023-03-11T22:55:03.969Z,93.19
2023-03-11T22:56:03.953Z,92.66
2023-03-11T22:57:03.930Z,92.31
2023-03-11T22:58:03.938Z,92.21
2023-03-11T22:59:33.244Z,91.58
2023-03-11T23:00:33.219Z,91.37
2023-03-11T23:01:33.209Z,91.37
2023-03-11T23:02:33.155Z,91.16
2023-03-11T23:03:33.316Z,91.06
2023-03-11T23:04:33.154Z,90.85
2023-03-11T23:05:33.169Z,90.95
2023-03-11T23:06:33.153Z,90.75
2023-03-11T23:07:33.104Z,90.75
2023-03-11T23:08:33.083Z,90.85
2023-03-11T23:09:33.061Z,90.75
2023-03-11T23:10:33.052Z,90.53
2023-03-11T23:11:33.059Z,90.22
2023-03-11T23:12:33.022Z,90.28
2023-03-11T23:13:33.027Z,90.18
2023-03-11T23:14:44.193Z,89.97
2023-03-11T23:15:33.994Z,89.87
2023-03-11T23:16:33.089Z,90.18
2023-03-11T23:17:33.029Z,89.66
2023-03-11T23:18:32.987Z,89.41
2023-03-11T23:19:33.004Z,89.20
2023-03-11T23:20:33.004Z,88.99
2023-03-11T23:21:33.068Z,88.89
2023-03-11T23:22:32.923Z,88.78
2023-03-11T23:23:32.913Z,88.89
2023-03-11T23:24:32.890Z,88.47
2023-03-11T23:25:32.882Z,88.47
2023-03-11T23:26:32.854Z,88.06
2023-03-11T23:27:32.835Z,87.63
2023-03-11T23:28:32.816Z,86.87
2023-03-11T23:29:32.877Z,87.07
2023-03-11T23:30:32.908Z,86.97
2023-03-11T23:31:32.777Z,85.61
2023-03-11T23:32:32.916Z,85.61
2023-03-11T23:33:32.756Z,85.26
2023-03-11T23:34:32.746Z,85.16
2023-03-11T23:35:32.871Z,84.53
2023-03-11T23:36:32.721Z,84.33
2023-03-11T23:37:32.694Z,83.91
2023-03-11T23:38:32.697Z,83.45
2023-03-11T23:39:32.668Z,81.47
2023-03-11T23:40:32.660Z,80.40
2023-03-11T23:41:32.691Z,81.02
2023-03-11T23:42:32.667Z,81.33
2023-03-11T23:43:32.656Z,81.23
2023-03-11T23:44:32.619Z,81.33
2023-03-11T23:45:32.610Z,80.60
2023-03-11T23:46:32.651Z,80.60
2023-03-11T23:47:32.570Z,80.50
2023-03-11T23:48:32.595Z,81.23
2023-03-11T23:49:32.554Z,79.77
2023-03-11T23:50:32.544Z,79.87
2023-03-11T23:51:32.527Z,80.50
2023-03-11T23:52:32.512Z,79.56
2023-03-11T23:53:32.665Z,79.25
2023-03-11T23:54:32.522Z,80.29
2023-03-11T23:55:32.498Z,78.83
2023-03-11T23:56:32.453Z,78.59
2023-03-11T23:57:32.447Z,78.90
2023-03-11T23:58:32.477Z,78.94
2023-03-11T23:59:32.463Z,79.00
